Time;durP1;ratioP1;P1;durP2;ratioP2;P2;SDS_P1;SDS_P2;PMS_P1;PMS_P2;Temp;Humidity;BMP_temperature;BMP_pressure;BME280_temperature;BME280_humidity;BME280_pressure;Samples;Min_cycle;Max_cycle;Signal;HPM_P1;HPM_P2
2022/11/15 00:00:52;;;;;;;1.17;1.08;;;6.90;99.90;;;;;;5076505;28;20079;-73
2022/11/15 00:03:24;;;;;;;3.15;1.48;;;6.60;99.90;;;;;;5077385;28;20063;-74
2022/11/15 00:05:50;;;;;;;1.65;1.10;;;6.50;99.90;;;;;;5055631;28;20083;-74
2022/11/15 00:08:16;;;;;;;2.53;2.30;;;6.40;99.90;;;;;;5056277;28;20041;-75
2022/11/15 00:10:42;;;;;;;1.17;1.02;;;6.30;99.90;;;;;;5055751;28;20056;-76
2022/11/15 00:13:12;;;;;;;4.50;1.48;;;6.30;99.90;;;;;;5068245;28;20045;-75
2022/11/15 00:15:39;;;;;;;1.83;1.25;;;6.20;99.90;;;;;;5077287;28;20052;-76
2022/11/15 00:18:06;;;;;;;3.03;2.13;;;6.20;99.90;;;;;;5078197;28;20051;-74
2022/11/15 00:20:33;;;;;;;1.27;1.17;;;6.30;99.90;;;;;;5079049;28;20060;-75
2022/11/15 00:22:59;;;;;;;6.55;2.47;;;6.40;99.90;;;;;;5060780;28;20808;-74
2022/11/15 00:25:27;;;;;;;2.08;1.88;;;6.50;99.90;;;;;;5078199;28;20048;-74
2022/11/15 00:27:56;;;;;;;1.48;1.38;;;6.60;99.90;;;;;;5077340;28;20055;-75
2022/11/15 00:30:22;;;;;;;19.55;2.95;;;6.50;99.90;;;;;;5077971;28;20047;-75
2022/11/15 00:32:47;;;;;;;0.35;0.35;;;6.40;99.90;;;;;;5069655;28;20045;-75
2022/11/15 00:35:13;;;;;;;2.25;2.05;;;6.30;99.90;;;;;;5057365;28;20072;-75
2022/11/15 00:37:39;;;;;;;0.60;0.60;;;6.40;99.90;;;;;;5079479;28;20062;-74
2022/11/15 00:40:05;;;;;;;1.35;1.25;;;6.50;99.90;;;;;;5078803;28;20055;-75
2022/11/15 00:42:30;;;;;;;4.18;1.70;;;6.50;99.90;;;;;;5079851;28;20040;-76
2022/11/15 00:44:56;;;;;;;1.38;1.27;;;6.90;99.90;;;;;;5097764;28;20131;-75
2022/11/15 00:47:22;;;;;;;1.38;1.27;;;6.70;99.90;;;;;;5098293;28;20028;-75
2022/11/15 00:49:57;;;;;;;1.40;1.30;;;6.80;99.90;;;;;;5100310;28;20044;-78
2022/11/15 00:52:23;;;;;;;3.00;1.75;;;6.90;99.90;;;;;;5098139;28;20051;-75
2022/11/15 00:54:49;;;;;;;0.73;0.73;;;7.00;99.90;;;;;;5061655;28;20040;-74
2022/11/15 00:57:15;;;;;;;0.93;0.93;;;7.00;99.90;;;;;;5078972;28;20121;-75
2022/11/15 00:59:40;;;;;;;1.00;0.90;;;7.00;99.90;;;;;;5078284;28;20104;-73
2022/11/15 01:02:06;;;;;;;3.88;1.95;;;7.00;99.90;;;;;;5078160;28;20044;-75
2022/11/15 01:04:31;;;;;;;2.30;1.10;;;7.00;99.90;;;;;;5078490;28;20063;-74
2022/11/15 01:06:57;;;;;;;0.73;0.73;;;7.10;99.90;;;;;;5079774;28;20045;-75
2022/11/15 01:09:23;;;;;;;2.65;2.40;;;7.10;99.90;;;;;;5080163;28;20049;-74
2022/11/15 01:11:48;;;;;;;1.48;1.38;;;7.20;99.90;;;;;;5078440;28;20037;-75
2022/11/15 01:14:14;;;;;;;1.52;1.42;;;7.20;99.90;;;;;;5079146;28;20410;-76
2022/11/15 01:16:40;;;;;;;2.50;2.30;;;7.20;99.90;;;;;;5078065;28;20102;-76
2022/11/15 01:19:05;;;;;;;1.98;1.40;;;7.20;99.90;;;;;;5079275;28;20037;-74
2022/11/15 01:21:31;;;;;;;0.75;0.75;;;7.30;29.10;;;;;;5080845;28;20020;-74
2022/11/15 01:23:57;;;;;;;1.30;1.00;;;7.40;15.20;;;;;;5078388;28;20040;-75
2022/11/15 01:26:23;;;;;;;1.63;1.17;;;7.40;21.80;;;;;;5081811;28;20048;-75
2022/11/15 01:28:50;;;;;;;1.20;1.10;;;7.50;1.00;;;;;;5082654;28;20059;-77
2022/11/15 01:31:18;;;;;;;1.52;1.42;;;7.40;1.00;;;;;;5080031;28;20058;-75
2022/11/15 01:33:45;;;;;;;1.50;1.13;;;7.50;1.00;;;;;;5080291;28;20111;-75
2022/11/15 01:36:14;;;;;;;4.65;1.35;;;7.60;1.00;;;;;;5081147;28;20048;-75
2022/11/15 01:38:40;;;;;;;0.65;0.63;;;7.50;1.00;;;;;;5079563;28;20047;-76
2022/11/15 01:41:06;;;;;;;1.23;1.02;;;7.60;1.00;;;;;;5080513;28;20044;-75
2022/11/15 01:43:36;;;;;;;2.72;2.22;;;7.50;1.00;;;;;;5060643;28;20124;-74
2022/11/15 01:46:19;;;;;;;1.65;1.55;;;7.60;1.00;;;;;;5064398;28;20066;-76
2022/11/15 01:48:45;;;;;;;4.45;2.50;;;7.50;1.00;;;;;;5080292;28;20041;-73
2022/11/15 01:51:15;;;;;;;1.88;1.77;;;7.50;1.00;;;;;;5081603;28;20068;-73
2022/11/15 01:53:44;;;;;;;1.88;1.73;;;7.50;1.00;;;;;;5082225;28;20104;-74
2022/11/15 01:56:13;;;;;;;2.50;1.27;;;7.50;4.40;;;;;;5062909;28;20086;-72
2022/11/15 01:58:40;;;;;;;1.50;1.40;;;7.60;1.00;;;;;;5081835;28;20055;-73
2022/11/15 02:01:06;;;;;;;2.63;2.35;;;7.60;1.00;;;;;;5080075;28;20074;-74
2022/11/15 02:03:47;;;;;;;0.68;0.68;;;7.60;1.00;;;;;;5057308;28;20044;-75
2022/11/15 02:06:13;;;;;;;1.88;1.70;;;7.50;32.10;;;;;;5081031;28;20051;-73
2022/11/15 02:08:39;;;;;;;0.77;0.77;;;7.60;29.90;;;;;;5082890;28;20048;-74
2022/11/15 02:11:08;;;;;;;1.70;1.48;;;7.60;1.00;;;;;;5080694;28;20048;-73
2022/11/15 02:13:34;;;;;;;0.82;0.82;;;7.50;69.60;;;;;;5061963;28;20049;-74
2022/11/15 02:16:22;;;;;;;4.82;2.47;;;7.50;97.40;;;;;;5061902;28;20072;-74
2022/11/15 02:18:59;;;;;;;1.33;1.23;;;7.50;95.60;;;;;;5059290;28;20048;-74
2022/11/15 02:21:42;;;;;;;3.60;3.15;;;7.50;96.60;;;;;;5060176;28;20045;-73
2022/11/15 02:24:24;;;;;;;1.73;1.52;;;7.50;99.90;;;;;;5051725;28;20116;-76
2022/11/15 02:27:27;;;;;;;4.22;2.08;;;7.60;93.90;;;;;;5079956;28;20101;-75
2022/11/15 02:30:11;;;;;;;3.42;1.95;;;7.50;99.90;;;;;;5081495;28;20430;-76
2022/11/15 02:32:48;;;;;;;0.95;0.93;;;7.60;99.90;;;;;;5079289;28;20024;-73
2022/11/15 02:35:27;;;;;;;;;;;7.60;99.90;;;;;;5077895;28;20123;-75
2022/11/15 02:37:59;;;;;;;1.70;1.60;;;7.50;99.90;;;;;;5079448;28;19988;-75
2022/11/15 02:41:11;;;;;;;2.28;1.38;;;7.60;99.90;;;;;;5076304;28;20091;-75
2022/11/15 02:43:57;;;;;;;1.05;0.95;;;7.60;99.90;;;;;;5047656;28;20087;-75
2022/11/15 02:47:12;;;;;;;7.50;1.23;;;7.60;99.90;;;;;;5058772;28;20041;-74
2022/11/15 02:49:14;;;;;;;10.30;1.42;;;7.60;99.90;;;;;;5058370;28;20359;-76
2022/11/15 02:51:42;;;;;;;1.95;1.10;;;7.60;99.90;;;;;;5058695;28;20057;-73
2022/11/15 02:54:13;;;;;;;1.13;1.13;;;7.70;99.90;;;;;;5058237;28;20055;-74
2022/11/15 02:56:40;;;;;;;3.97;1.98;;;7.70;99.30;;;;;;5136848;22;20379;-77
2022/11/15 02:59:08;;;;;;;1.38;1.08;;;7.70;99.90;;;;;;5045565;28;20084;-77
2022/11/15 03:02:04;;;;;;;5.05;1.48;;;7.60;99.90;;;;;;5061878;28;20048;-78
2022/11/15 03:04:45;;;;;;;5.43;3.63;;;7.60;99.90;;;;;;5065548;28;20648;-79
2022/11/15 03:07:16;;;;;;;1.83;1.70;;;7.70;99.90;;;;;;5066326;28;20151;-78
2022/11/15 03:10:12;;;;;;;1.17;1.05;;;7.60;99.90;;;;;;5050873;28;20596;-78
2022/11/15 03:12:51;;;;;;;2.67;1.77;;;7.70;99.90;;;;;;5019492;28;20044;-78
2022/11/15 03:15:42;;;;;;;6.00;1.63;;;7.80;99.90;;;;;;5065490;28;20056;-78
2022/11/15 03:18:27;;;;;;;8.35;2.00;;;7.70;99.90;;;;;;5065814;28;20048;-78
2022/11/15 03:20:54;;;;;;;4.40;1.02;;;8.00;97.20;;;;;;5066407;28;20079;-78
2022/11/15 03:23:20;;;;;;;3.25;1.58;;;7.90;99.90;;;;;;5065439;28;20435;-78
2022/11/15 03:25:50;;;;;;;1.98;1.88;;;7.80;99.90;;;;;;5046888;28;20063;-78
2022/11/15 03:28:24;;;;;;;4.25;1.55;;;8.30;99.90;;;;;;5065663;28;20422;-77
2022/11/15 03:30:51;;;;;;;1.48;1.38;;;7.90;99.90;;;;;;5063783;28;20051;-78
2022/11/15 03:33:20;;;;;;;1.73;1.38;;;7.90;99.90;;;;;;5056200;28;20037;-78
2022/11/15 03:35:48;;;;;;;1.80;1.60;;;7.90;99.90;;;;;;5044974;28;20573;-78
2022/11/15 03:38:29;;;;;;;3.75;2.00;;;7.90;99.90;;;;;;5045454;28;20049;-78
2022/11/15 03:41:09;;;;;;;1.67;1.17;;;7.90;99.90;;;;;;5045699;28;20130;-79
2022/11/15 03:44:13;;;;;;;1.98;1.77;;;8.00;99.90;;;;;;5046003;28;20041;-78
2022/11/15 03:47:04;;;;;;;3.58;2.17;;;8.00;99.90;;;;;;5046183;28;20059;-78
2022/11/15 03:49:34;;;;;;;1.30;1.25;;;8.10;99.90;;;;;;5046661;28;20874;-79
2022/11/15 03:52:02;;;;;;;4.32;3.33;;;8.10;99.90;;;;;;5053080;28;20040;-79
2022/11/15 03:54:27;;;;;;;2.38;1.73;;;8.10;99.90;;;;;;5066181;28;20044;-78
2022/11/15 03:56:53;;;;;;;0.95;0.88;;;8.00;99.90;;;;;;5066005;28;20097;-78
2022/11/15 03:59:19;;;;;;;4.90;2.45;;;8.00;99.90;;;;;;5065936;28;20051;-78
2022/11/15 04:01:44;;;;;;;5.47;2.88;;;8.80;99.90;;;;;;5065946;28;20090;-78
2022/11/15 04:04:10;;;;;;;2.20;2.00;;;8.00;99.90;;;;;;5065750;28;20515;-78
2022/11/15 04:06:35;;;;;;;1.83;1.65;;;8.10;99.90;;;;;;5065005;28;20070;-78
2022/11/15 04:09:01;;;;;;;3.80;1.95;;;8.10;99.90;;;;;;5065874;28;20049;-79
2022/11/15 04:11:27;;;;;;;3.72;2.60;;;8.10;99.90;;;;;;5067254;28;20040;-79
2022/11/15 04:13:52;;;;;;;2.72;2.53;;;8.00;99.90;;;;;;5067427;28;20044;-79
2022/11/15 04:16:18;;;;;;;8.13;4.63;;;7.90;99.90;;;;;;5066202;28;20044;-79
2022/11/15 04:18:43;;;;;;;3.53;3.22;;;8.00;99.90;;;;;;5065932;28;20051;-79
2022/11/15 04:24:12;;;;;;;4.32;2.08;;;8.00;99.90;;;;;;5065950;28;20060;-78
2022/11/15 04:26:37;;;;;;;3.20;2.75;;;8.00;99.90;;;;;;5048908;28;20502;-78
2022/11/15 04:31:47;;;;;;;0.93;0.85;;;7.90;99.90;;;;;;5073409;28;20695;-78
2022/11/15 04:34:12;;;;;;;3.33;1.67;;;8.00;99.90;;;;;;5071206;28;20074;-78
2022/11/15 04:39:22;;;;;;;3.03;2.78;;;8.00;99.90;;;;;;5071564;28;20072;-78
2022/11/15 04:41:48;;;;;;;1.67;1.33;;;8.00;99.90;;;;;;5072057;28;20460;-78
2022/11/15 04:44:14;;;;;;;6.25;3.40;;;8.10;99.90;;;;;;5071357;28;20044;-78
2022/11/15 04:46:39;;;;;;;2.50;2.28;;;8.20;99.90;;;;;;5071591;28;20048;-78
2022/11/15 04:49:05;;;;;;;8.40;5.18;;;8.20;99.90;;;;;;5070773;28;20064;-78
2022/11/15 04:51:30;;;;;;;2.60;2.20;;;8.20;99.90;;;;;;5070483;28;20486;-79
2022/11/15 04:53:56;;;;;;;1.45;1.13;;;8.30;99.90;;;;;;5069805;28;20037;-78
2022/11/15 04:56:22;;;;;;;3.25;2.65;;;8.40;99.90;;;;;;5069794;28;20071;-79
2022/11/15 04:58:50;;;;;;;4.40;1.83;;;8.40;99.90;;;;;;5069286;28;20044;-79
2022/11/15 05:01:16;;;;;;;4.18;2.67;;;8.40;99.90;;;;;;5071461;28;20047;-79
2022/11/15 05:06:30;;;;;;;4.22;3.42;;;8.50;99.90;;;;;;5052807;28;20056;-78
2022/11/15 05:08:56;;;;;;;2.40;2.05;;;8.50;99.90;;;;;;5070372;28;20090;-78
2022/11/15 05:11:22;;;;;;;1.40;1.13;;;8.50;99.90;;;;;;5052244;28;20055;-78
2022/11/15 05:13:48;;;;;;;4.60;2.53;;;8.60;99.90;;;;;;5070133;28;20055;-79
2022/11/15 05:16:14;;;;;;;0.55;0.55;;;8.60;99.90;;;;;;5070016;28;20383;-78
2022/11/15 05:18:43;;;;;;;5.30;2.13;;;8.70;99.90;;;;;;5070353;28;20048;-78
2022/11/15 05:21:11;;;;;;;5.18;2.40;;;8.60;99.90;;;;;;5069023;28;20132;-78
2022/11/15 05:23:37;;;;;;;2.60;2.10;;;8.70;99.90;;;;;;5050751;28;20044;-78
2022/11/15 05:26:05;;;;;;;3.03;2.72;;;8.80;99.90;;;;;;5068878;28;20098;-78
2022/11/15 05:28:31;;;;;;;5.60;2.13;;;8.90;99.90;;;;;;5069386;28;20090;-78
2022/11/15 05:31:14;;;;;;;2.65;1.70;;;9.80;99.90;;;;;;5069390;28;20048;-78
2022/11/15 05:33:42;;;;;;;2.95;2.28;;;8.90;99.90;;;;;;5069422;28;20123;-78
2022/11/15 05:36:11;;;;;;;3.83;2.08;;;9.00;99.90;;;;;;5069830;28;20414;-78
2022/11/15 05:38:37;;;;;;;1.98;1.75;;;9.00;99.90;;;;;;5069195;28;20052;-78
2022/11/15 05:41:04;;;;;;;1.55;1.45;;;9.10;99.90;;;;;;5068741;28;20127;-78
2022/11/15 05:43:33;;;;;;;3.60;2.80;;;9.20;99.90;;;;;;5069186;28;20044;-77
2022/11/15 05:46:00;;;;;;;3.70;2.03;;;9.20;99.90;;;;;;5068164;28;20597;-77
2022/11/15 05:48:26;;;;;;;4.03;2.22;;;9.20;99.90;;;;;;5067427;28;20103;-78
2022/11/15 05:50:52;;;;;;;5.38;1.65;;;9.20;99.90;;;;;;5067724;28;20080;-77
2022/11/15 05:53:21;;;;;;;3.90;3.17;;;9.30;99.90;;;;;;5067175;28;20615;-78
2022/11/15 05:55:47;;;;;;;2.03;1.85;;;9.40;99.90;;;;;;5066014;28;20088;-77
2022/11/15 05:58:13;;;;;;;4.20;3.80;;;9.50;99.90;;;;;;5064369;28;20084;-78
2022/11/15 06:00:39;;;;;;;1.85;1.48;;;9.50;99.90;;;;;;5065858;28;20060;-78
2022/11/15 06:03:04;;;;;;;1.92;1.80;;;9.50;99.90;;;;;;5066086;28;20059;-78
2022/11/15 06:05:30;;;;;;;3.47;1.67;;;9.50;99.90;;;;;;5065485;28;20041;-78
2022/11/15 06:07:58;;;;;;;3.90;2.60;;;9.50;99.90;;;;;;5065849;28;20053;-78
2022/11/15 06:10:24;;;;;;;1.25;1.10;;;9.60;99.90;;;;;;5065484;28;20433;-78
2022/11/15 06:13:02;;;;;;;4.75;3.17;;;9.60;99.90;;;;;;5065160;28;20408;-77
2022/11/15 06:15:27;;;;;;;2.20;1.85;;;9.90;99.90;;;;;;5064982;28;20103;-77
2022/11/15 06:17:57;;;;;;;3.90;1.83;;;9.70;99.90;;;;;;5064845;28;20510;-77
2022/11/15 06:20:24;;;;;;;8.48;3.13;;;9.70;99.90;;;;;;5064199;28;20515;-77
2022/11/15 06:22:49;;;;;;;5.72;4.55;;;9.70;99.90;;;;;;5048124;28;20080;-78
2022/11/15 06:25:16;;;;;;;2.03;1.23;;;9.80;99.90;;;;;;5065419;28;20090;-77
2022/11/15 06:27:41;;;;;;;3.03;1.52;;;9.90;99.90;;;;;;5066762;28;20079;-78
2022/11/15 06:30:08;;;;;;;2.85;2.60;;;9.90;99.90;;;;;;5066674;28;20498;-77
2022/11/15 06:32:33;;;;;;;9.75;2.80;;;9.90;99.90;;;;;;5065559;28;20441;-77
2022/11/15 06:34:59;;;;;;;2.13;1.58;;;9.90;99.90;;;;;;5064545;28;20053;-77
2022/11/15 06:37:24;;;;;;;4.90;2.75;;;10.00;99.90;;;;;;5063480;28;20071;-77
2022/11/15 06:39:50;;;;;;;4.20;3.53;;;10.00;99.90;;;;;;5063940;28;20076;-77
2022/11/15 06:42:15;;;;;;;4.47;1.75;;;10.10;99.90;;;;;;5064443;28;20057;-77
2022/11/15 06:44:41;;;;;;;1.75;1.65;;;10.10;99.90;;;;;;5063956;28;20133;-78
2022/11/15 06:47:07;;;;;;;3.35;2.58;;;10.20;99.90;;;;;;5063888;28;20036;-77
2022/11/15 06:49:32;;;;;;;1.75;1.63;;;10.20;99.90;;;;;;5063424;28;20048;-77
2022/11/15 06:51:58;;;;;;;2.45;2.25;;;10.20;99.90;;;;;;5063920;28;20056;-77
2022/11/15 06:54:23;;;;;;;1.92;1.40;;;10.20;99.90;;;;;;5064073;28;20052;-78
2022/11/15 06:56:49;;;;;;;3.65;2.75;;;10.20;99.90;;;;;;5064025;28;20056;-77
2022/11/15 06:59:15;;;;;;;2.75;0.70;;;10.20;99.90;;;;;;5046459;28;20053;-77
2022/11/15 07:01:40;;;;;;;2.88;1.98;;;10.20;99.90;;;;;;5064914;28;20559;-78
2022/11/15 07:04:06;;;;;;;3.42;2.72;;;10.30;99.90;;;;;;5064643;28;20063;-78
2022/11/15 07:06:31;;;;;;;5.60;3.20;;;11.00;99.90;;;;;;5064188;28;20040;-78
2022/11/15 07:08:57;;;;;;;2.30;1.83;;;10.30;99.90;;;;;;5063980;28;20125;-77
2022/11/15 07:11:22;;;;;;;3.53;2.17;;;10.40;99.90;;;;;;5063533;28;20585;-77
2022/11/15 07:13:48;;;;;;;4.03;1.50;;;10.30;99.90;;;;;;5064558;28;20055;-78
2022/11/15 07:16:13;;;;;;;3.28;2.08;;;10.30;99.90;;;;;;5057981;28;20055;-77
2022/11/15 07:18:40;;;;;;;5.15;2.28;;;10.40;99.90;;;;;;5053506;28;20048;-77
2022/11/15 07:21:08;;;;;;;2.33;1.65;;;10.40;99.90;;;;;;5053980;28;20045;-77
2022/11/15 07:23:37;;;;;;;3.53;1.27;;;10.40;99.90;;;;;;5052334;28;20166;-78
2022/11/15 07:26:03;;;;;;;3.05;1.73;;;10.70;99.90;;;;;;5051305;28;20081;-78
2022/11/15 07:28:29;;;;;;;2.88;1.52;;;10.50;99.90;;;;;;5062252;28;20076;-77
2022/11/15 07:30:54;;;;;;;6.35;2.55;;;10.60;99.90;;;;;;5063565;28;20079;-77
2022/11/15 07:33:20;;;;;;;3.47;2.63;;;10.60;99.90;;;;;;5064622;28;20047;-77
2022/11/15 07:35:49;;;;;;;0.45;0.45;;;10.70;99.90;;;;;;5063111;28;20054;-78
2022/11/15 07:38:15;;;;;;;1.40;1.30;;;10.60;99.90;;;;;;5063081;28;20055;-77
2022/11/15 07:40:41;;;;;;;4.82;2.90;;;10.70;99.90;;;;;;5063567;28;20407;-76
2022/11/15 07:43:08;;;;;;;1.55;1.45;;;10.70;99.90;;;;;;5063628;28;20044;-78
2022/11/15 07:45:34;;;;;;;1.73;1.63;;;10.70;99.90;;;;;;5063795;28;20048;-77
2022/11/15 07:48:00;;;;;;;4.07;1.77;;;10.70;99.90;;;;;;5063925;28;20052;-78
2022/11/15 07:50:27;;;;;;;2.33;1.20;;;10.80;99.90;;;;;;5063408;28;20131;-78
2022/11/15 07:52:58;;;;;;;5.95;1.70;;;10.80;99.90;;;;;;5063764;28;20063;-78
2022/11/15 07:55:26;;;;;;;1.33;1.23;;;10.70;99.90;;;;;;5064063;28;20052;-78
2022/11/15 07:57:52;;;;;;;6.07;2.42;;;10.80;99.90;;;;;;5063536;28;20461;-77
2022/11/15 08:00:19;;;;;;;4.63;1.40;;;10.90;99.90;;;;;;5062770;28;20059;-78
2022/11/15 08:02:45;;;;;;;2.00;1.40;;;11.00;99.90;;;;;;5061248;28;20522;-78
2022/11/15 08:05:11;;;;;;;7.63;1.65;;;11.00;99.90;;;;;;5061951;28;20076;-77
2022/11/15 08:07:37;;;;;;;2.22;1.40;;;11.00;99.90;;;;;;5063221;28;20406;-78
2022/11/15 08:10:05;;;;;;;11.90;2.85;;;11.10;99.90;;;;;;5062013;28;20048;-78
2022/11/15 08:12:31;;;;;;;3.30;2.78;;;11.10;99.90;;;;;;5062134;28;20067;-78
2022/11/15 08:14:57;;;;;;;0.77;0.77;;;11.10;99.90;;;;;;5061681;28;20052;-77
2022/11/15 08:17:24;;;;;;;0.85;0.82;;;11.20;99.90;;;;;;5062463;28;20079;-78
2022/11/15 08:19:50;;;;;;;0.95;0.93;;;11.30;99.90;;;;;;5064894;28;20049;-78
2022/11/15 08:22:15;;;;;;;1.25;0.98;;;11.30;99.90;;;;;;5063274;28;20048;-78
2022/11/15 08:24:41;;;;;;;3.42;2.03;;;11.40;99.90;;;;;;5062178;28;20036;-78
2022/11/15 08:27:14;;;;;;;2.28;1.80;;;11.50;99.90;;;;;;5062752;28;20043;-78
2022/11/15 08:29:58;;;;;;;0.65;0.65;;;11.50;99.90;;;;;;5062883;28;20099;-78
2022/11/15 08:32:24;;;;;;;7.88;3.00;;;11.70;99.90;;;;;;5044130;28;20820;-78
2022/11/15 08:34:49;;;;;;;7.75;2.75;;;11.70;99.90;;;;;;5062748;28;20401;-78
2022/11/15 08:37:15;;;;;;;5.55;2.55;;;11.70;99.90;;;;;;5063406;28;20049;-78
2022/11/15 08:39:40;;;;;;;2.25;1.65;;;11.70;99.90;;;;;;5061530;28;20052;-77
2022/11/15 08:42:06;;;;;;;2.15;1.70;;;11.70;99.90;;;;;;5062890;28;20050;-78
2022/11/15 08:44:31;;;;;;;3.38;2.13;;;11.80;99.90;;;;;;5063729;28;20139;-77
2022/11/15 08:46:57;;;;;;;1.95;1.70;;;11.90;99.90;;;;;;5063241;28;20918;-78
2022/11/15 08:49:22;;;;;;;3.42;2.10;;;12.10;99.90;;;;;;5062515;28;20483;-78
2022/11/15 08:51:48;;;;;;;5.72;1.67;;;12.20;99.90;;;;;;5064876;28;20044;-78
2022/11/15 08:54:14;;;;;;;3.00;1.75;;;12.20;99.90;;;;;;5067268;28;20127;-78
2022/11/15 08:56:39;;;;;;;9.15;4.00;;;12.30;99.90;;;;;;5066277;28;20061;-78
2022/11/15 08:59:05;;;;;;;1.13;1.02;;;12.30;99.90;;;;;;5065448;28;20048;-78
2022/11/15 09:01:30;;;;;;;0.75;0.40;;;12.40;99.90;;;;;;5062733;28;20524;-78
2022/11/15 09:03:56;;;;;;;2.08;1.33;;;12.50;99.90;;;;;;5062455;28;20048;-78
2022/11/15 09:06:22;;;;;;;1.05;1.05;;;12.20;99.90;;;;;;5062126;28;20540;-78
2022/11/15 09:08:48;;;;;;;4.78;2.20;;;12.20;99.90;;;;;;5061996;28;20052;-78
2022/11/15 09:11:16;;;;;;;3.58;1.17;;;12.10;99.90;;;;;;5061453;28;20053;-77
2022/11/15 09:13:42;;;;;;;5.93;1.90;;;12.10;99.90;;;;;;5063999;28;20102;-78
2022/11/15 09:16:07;;;;;;;2.03;1.88;;;12.10;99.90;;;;;;5065490;28;20398;-78
2022/11/15 09:18:34;;;;;;;2.47;2.17;;;12.10;99.90;;;;;;5063313;28;20043;-77
2022/11/15 09:21:02;;;;;;;3.60;1.58;;;12.20;99.90;;;;;;5058303;28;20562;-78
2022/11/15 09:23:27;;;;;;;5.72;3.10;;;12.20;99.90;;;;;;5057794;28;20453;-77
2022/11/15 09:26:02;;;;;;;6.60;2.03;;;12.20;99.90;;;;;;5042988;28;20044;-77
2022/11/15 09:28:28;;;;;;;1.10;0.85;;;12.20;99.90;;;;;;5043647;28;20476;-77
2022/11/15 09:31:03;;;;;;;3.20;0.90;;;12.20;99.90;;;;;;5042962;28;20049;-77
2022/11/15 09:33:29;;;;;;;2.17;1.48;;;12.20;99.90;;;;;;5042388;28;20567;-78
2022/11/15 09:35:58;;;;;;;0.68;0.68;;;12.40;99.90;;;;;;5044156;28;20040;-78
2022/11/15 09:38:24;;;;;;;5.18;2.47;;;12.40;99.90;;;;;;5044249;28;20616;-78
2022/11/15 09:41:07;;;;;;;4.60;2.38;;;12.40;99.90;;;;;;5044380;28;20353;-78
2022/11/15 09:43:57;;;;;;;1.20;1.10;;;12.50;99.90;;;;;;5044336;28;20048;-78
2022/11/15 09:46:43;;;;;;;1.92;1.75;;;12.60;99.90;;;;;;5025277;28;20497;-78
2022/11/15 09:49:13;;;;;;;1.13;1.02;;;12.70;99.90;;;;;;5043263;28;20187;-78
2022/11/15 09:51:58;;;;;;;4.43;2.40;;;12.80;99.90;;;;;;5058050;28;20047;-77
2022/11/15 09:54:34;;;;;;;3.85;2.60;;;12.70;99.90;;;;;;5062185;28;20138;-77
2022/11/15 09:57:29;;;;;;;5.78;2.08;;;12.70;99.90;;;;;;5062060;28;20517;-77
2022/11/15 10:00:07;;;;;;;2.17;1.38;;;12.70;99.90;;;;;;5062676;28;20044;-78
2022/11/15 10:02:48;;;;;;;1.98;1.27;;;12.80;99.90;;;;;;5062503;28;20561;-77
2022/11/15 10:05:18;;;;;;;1.25;0.88;;;12.90;99.90;;;;;;5062634;28;20048;-77
2022/11/15 10:08:10;;;;;;;2.67;1.08;;;12.80;99.90;;;;;;5061701;28;20105;-77
2022/11/15 10:10:40;;;;;;;4.43;1.48;;;13.10;99.90;;;;;;5063090;28;20045;-77
2022/11/15 10:13:26;;;;;;;1.25;1.13;;;12.80;99.90;;;;;;5072765;28;20505;-77
2022/11/15 10:15:56;;;;;;;1.08;1.02;;;12.90;99.90;;;;;;5061845;28;20671;-77
2022/11/15 10:18:35;;;;;;;0.90;0.85;;;12.90;99.90;;;;;;5062672;28;20075;-78
2022/11/15 10:21:17;;;;;;;1.08;0.80;;;12.80;99.90;;;;;;5049754;28;20060;-79
2022/11/15 10:23:42;;;;;;;3.25;1.17;;;12.80;99.90;;;;;;5082728;28;20055;-78
2022/11/15 10:26:16;;;;;;;3.55;1.60;;;12.80;99.90;;;;;;5082235;28;20482;-78
2022/11/15 10:28:41;;;;;;;1.17;0.90;;;13.50;99.90;;;;;;5072857;28;20041;-78
2022/11/15 10:31:25;;;;;;;1.17;0.75;;;12.70;99.90;;;;;;5062339;28;20521;-77
2022/11/15 10:33:57;;;;;;;3.40;1.90;;;12.60;99.90;;;;;;5061409;28;20044;-78
2022/11/15 10:36:25;;;;;;;4.68;1.05;;;12.50;99.90;;;;;;5062165;28;20511;-78
2022/11/15 10:38:50;;;;;;;2.60;1.63;;;12.50;99.90;;;;;;5061444;28;20053;-78
2022/11/15 10:41:30;;;;;;;0.75;0.75;;;12.60;99.90;;;;;;5061080;28;20521;-77
2022/11/15 10:44:08;;;;;;;0.88;0.80;;;12.40;99.90;;;;;;5061278;28;20102;-78
2022/11/15 10:46:36;;;;;;;0.47;0.28;;;12.20;99.90;;;;;;5065261;28;20111;-81
2022/11/15 10:49:14;;;;;;;1.52;0.65;;;12.10;99.90;;;;;;5065009;28;20085;-78
2022/11/15 10:51:52;;;;;;;0.47;0.47;;;12.00;99.90;;;;;;5066256;28;20097;-78
2022/11/15 10:54:28;;;;;;;0.82;0.82;;;12.00;99.90;;;;;;5066634;28;20048;-78
2022/11/15 10:56:57;;;;;;;5.05;1.73;;;11.90;99.90;;;;;;5066510;28;20060;-78
2022/11/15 10:59:34;;;;;;;0.30;0.22;;;12.00;99.90;;;;;;5065920;28;20133;-78
2022/11/15 11:01:59;;;;;;;0.55;0.52;;;12.10;99.90;;;;;;5066137;28;20063;-78
2022/11/15 11:04:25;;;;;;;0.93;0.85;;;12.70;99.90;;;;;;5065669;28;20062;-77
2022/11/15 11:06:54;;;;;;;1.02;0.73;;;12.20;99.90;;;;;;5064937;28;20052;-78
2022/11/15 11:09:35;;;;;;;2.47;1.00;;;12.20;99.90;;;;;;5064879;28;20048;-78
2022/11/15 11:12:03;;;;;;;1.98;1.10;;;12.20;99.90;;;;;;5065183;28;20123;-79
2022/11/15 11:14:37;;;;;;;1.50;1.13;;;12.30;99.90;;;;;;5065164;28;20044;-77
2022/11/15 11:17:29;;;;;;;1.20;0.60;;;12.40;99.90;;;;;;5065515;28;20041;-78
2022/11/15 11:20:09;;;;;;;0.88;0.57;;;12.10;99.90;;;;;;5064733;28;20178;-78
2022/11/15 11:23:04;;;;;;;0.68;0.63;;;12.00;99.90;;;;;;5064614;28;20467;-78
2022/11/15 11:25:40;;;;;;;1.45;0.85;;;12.00;99.90;;;;;;5065616;28;20048;-78
2022/11/15 11:28:25;;;;;;;3.38;1.13;;;12.20;99.90;;;;;;5064867;28;20044;-78
2022/11/15 11:31:04;;;;;;;1.67;1.13;;;12.40;99.90;;;;;;5064319;28;20376;-78
2022/11/15 11:33:57;;;;;;;1.73;0.85;;;12.60;99.90;;;;;;5063015;28;20544;-77
2022/11/15 11:36:34;;;;;;;3.13;2.50;;;12.80;99.90;;;;;;5062274;28;20045;-78
2022/11/15 11:39:18;;;;;;;0.30;0.30;;;13.00;99.90;;;;;;5046133;28;20044;-77
2022/11/15 11:41:44;;;;;;;1.25;0.73;;;12.80;99.90;;;;;;5063664;28;20048;-77
2022/11/15 11:44:32;;;;;;;0.13;0.13;;;12.60;99.90;;;;;;5063611;28;20063;-77
2022/11/15 11:47:19;;;;;;;0.45;0.40;;;12.80;99.90;;;;;;5061983;28;20059;-78
2022/11/15 11:49:52;;;;;;;1.45;0.65;;;13.00;99.90;;;;;;5061596;28;20062;-77
2022/11/15 11:52:22;;;;;;;0.47;0.45;;;13.00;99.90;;;;;;5061785;28;20048;-77
2022/11/15 11:55:13;;;;;;;1.05;0.50;;;13.10;99.90;;;;;;5068278;28;20122;-77
2022/11/15 11:57:50;;;;;;;0.85;0.63;;;13.10;99.90;;;;;;5065288;28;20392;-77
2022/11/15 12:00:21;;;;;;;0.98;0.60;;;13.30;99.90;;;;;;5060897;28;20056;-77
2022/11/15 12:03:07;;;;;;;1.90;1.02;;;13.30;99.90;;;;;;5042046;28;20048;-77
2022/11/15 12:05:43;;;;;;;0.53;0.47;;;13.20;99.90;;;;;;5059990;28;20462;-76
2022/11/15 12:08:20;;;;;;;;;;;13.20;99.90;;;;;;5060683;28;20545;-77
2022/11/15 12:10:50;;;;;;;0.35;0.30;;;13.00;99.90;;;;;;5059683;28;20562;-77
2022/11/15 12:13:24;;;;;;;0.40;0.40;;;12.60;99.90;;;;;;5060334;28;20064;-77
2022/11/15 12:16:18;;;;;;;0.30;0.30;;;12.50;99.90;;;;;;5060674;28;20052;-78
2022/11/15 12:18:48;;;;;;;0.65;0.30;;;12.40;99.90;;;;;;5051006;28;20049;-77
2022/11/15 12:21:36;;;;;;;1.30;0.65;;;12.60;99.90;;;;;;5043937;28;20057;-77
2022/11/15 12:24:28;;;;;;;0.95;0.88;;;12.70;99.90;;;;;;5062615;28;20552;-77
2022/11/15 12:26:59;;;;;;;0.00;0.00;;;12.80;99.90;;;;;;5020232;28;20053;-76
2022/11/15 12:29:49;;;;;;;1.10;0.75;;;12.80;99.90;;;;;;5061727;28;20139;-77
2022/11/15 12:32:24;;;;;;;1.35;1.25;;;12.50;61.50;;;;;;5063048;28;20456;-77
2022/11/15 12:34:50;;;;;;;0.10;0.05;;;12.40;1.00;;;;;;5062911;28;20072;-77
2022/11/15 12:37:37;;;;;;;1.17;0.80;;;12.40;99.90;;;;;;5062498;28;20044;-77
2022/11/15 12:40:20;;;;;;;0.55;0.55;;;12.30;1.00;;;;;;5062288;28;20442;-77
2022/11/15 12:43:02;;;;;;;0.93;0.82;;;12.10;1.00;;;;;;5062853;28;20083;-77
2022/11/15 12:45:40;;;;;;;0.10;0.10;;;12.10;1.00;;;;;;5063247;28;20048;-77
2022/11/15 12:48:18;;;;;;;0.00;0.00;;;12.10;1.00;;;;;;5064140;28;20059;-78
2022/11/15 12:50:53;;;;;;;0.65;0.60;;;12.20;99.90;;;;;;5065633;28;20056;-77
2022/11/15 12:53:25;;;;;;;0.68;0.65;;;12.10;1.00;;;;;;5066248;28;20048;-77
2022/11/15 12:56:09;;;;;;;0.25;0.20;;;12.40;1.00;;;;;;5066198;28;20051;-80
2022/11/15 12:58:43;;;;;;;0.52;0.32;;;12.70;42.00;;;;;;5066065;28;20080;-77
2022/11/15 13:01:10;;;;;;;7.65;0.80;;;12.90;99.90;;;;;;5066532;28;20044;-77
2022/11/15 13:04:14;;;;;;;0.80;0.40;;;13.00;89.70;;;;;;5066441;28;20050;-78
2022/11/15 13:06:45;;;;;;;0.00;0.00;;;13.20;1.00;;;;;;5066319;28;20052;-77
2022/11/15 13:09:35;;;;;;;0.00;0.00;;;13.40;99.90;;;;;;5066517;28;20059;-77
2022/11/15 13:12:03;;;;;;;0.00;0.00;;;13.30;7.10;;;;;;5066371;28;20040;-77
2022/11/15 13:14:47;;;;;;;0.40;0.35;;;13.40;43.10;;;;;;5065544;28;20036;-77
2022/11/15 13:17:20;;;;;;;0.15;0.00;;;13.30;1.00;;;;;;5063404;28;20076;-77
2022/11/15 13:19:48;;;;;;;1.20;0.47;;;13.20;99.90;;;;;;5063604;28;20563;-78
2022/11/15 13:25:00;;;;;;;0.47;0.47;;;13.30;50.50;;;;;;5064007;28;20056;-77
2022/11/15 13:27:26;;;;;;;0.20;0.20;;;13.20;99.90;;;;;;5064273;28;20379;-78